Time,TemperatureF,DewpointF,PressureIn,WindDirection,WindDirectionDegrees,WindSpeedMPH,WindSpeedGustMPH,Humidity,HourlyPrecipIn,Conditions,Clouds,dailyrainin,SoftwareType,DateUTC
2013-02-02 00:11:00,54.4,43.0,29.88,SSE,147,2.0,-999.0,65,-99.99,,,0.00,weatherlink.com 1.10,2013-02-01 22:11:00,
2013-02-02 00:26:00,53.9,43.0,29.87,SE,130,0.0,-999.0,67,-99.99,,,0.00,weatherlink.com 1.10,2013-02-01 22:26:00,
2013-02-02 00:42:00,53.5,43.0,29.86,SE,130,0.0,-999.0,68,-99.99,,,0.00,weatherlink.com 1.10,2013-02-01 22:42:00,
2013-02-02 00:56:00,53.7,43.0,29.85,SE,132,6.0,-999.0,68,-99.99,,,0.00,weatherlink.com 1.10,2013-02-01 22:56:00,
2013-02-02 01:11:00,53.4,43.0,29.85,ESE,123,2.0,-999.0,68,-99.99,,,0.00,weatherlink.com 1.10,2013-02-01 23:11:00,
2013-02-02 01:26:00,53.5,43.0,29.85,ESE,119,0.0,-999.0,67,-99.99,,,0.00,weatherlink.com 1.10,2013-02-01 23:26:00,
2013-02-02 01:41:00,53.7,43.0,29.85,ESE,119,3.0,-999.0,67,-99.99,,,0.00,weatherlink.com 1.10,2013-02-01 23:41:00,
2013-02-02 01:56:00,53.6,44.0,29.84,SSE,148,1.0,-999.0,69,-99.99,,,0.00,weatherlink.com 1.10,2013-02-01 23:56:00,
2013-02-02 02:11:00,53.8,44.0,29.84,SE,132,0.0,-999.0,70,-99.99,,,0.00,weatherlink.com 1.10,2013-02-02 00:11:00,
2013-02-02 02:41:00,54.0,45.0,29.84,SE,139,0.0,-999.0,72,-99.99,,,0.00,weatherlink.com 1.10,2013-02-02 00:41:00,
2013-02-02 02:57:00,53.6,45.0,29.84,SE,139,0.0,-999.0,72,-99.99,,,0.00,weatherlink.com 1.10,2013-02-02 00:57:00,
2013-02-02 03:12:00,53.2,45.0,29.83,SE,139,0.0,-999.0,73,-99.99,,,0.00,weatherlink.com 1.10,2013-02-02 01:12:00,
2013-02-02 03:27:00,52.9,45.0,29.82,SE,139,0.0,-999.0,74,-99.99,,,0.00,weatherlink.com 1.10,2013-02-02 01:27:00,
2013-02-02 03:42:00,52.5,44.0,29.81,SE,139,0.0,-999.0,74,-99.99,,,0.00,weatherlink.com 1.10,2013-02-02 01:42:00,
2013-02-02 03:57:00,52.3,44.0,29.81,SE,139,0.0,-999.0,74,-99.99,,,0.00,weatherlink.com 1.10,2013-02-02 01:57:00,
2013-02-02 04:12:00,52.6,44.0,29.80,SE,139,5.0,-999.0,72,-99.99,,,0.00,weatherlink.com 1.10,2013-02-02 02:12:00,
2013-02-02 04:27:00,52.8,44.0,29.80,SE,139,1.0,-999.0,71,-99.99,,,0.00,weatherlink.com 1.10,2013-02-02 02:27:00,
2013-02-02 04:42:00,52.5,44.0,29.80,SE,139,0.0,-999.0,72,-99.99,,,0.00,weatherlink.com 1.10,2013-02-02 02:42:00,
2013-02-02 04:57:00,52.1,44.0,29.80,SE,139,4.0,-999.0,74,-99.99,,,0.00,weatherlink.com 1.10,2013-02-02 02:57:00,
2013-02-02 05:12:00,52.2,45.0,29.79,ESE,121,4.0,-999.0,76,-99.99,,,0.00,weatherlink.com 1.10,2013-02-02 03:12:00,
2013-02-02 05:27:00,52.4,45.0,29.79,ESE,123,2.0,-999.0,77,-99.99,,,0.00,weatherlink.com 1.10,2013-02-02 03:27:00,
2013-02-02 05:42:00,52.2,46.0,29.79,ESE,123,2.0,-999.0,79,-99.99,,,0.00,weatherlink.com 1.10,2013-02-02 03:42:00,
2013-02-02 05:57:00,52.3,46.0,29.78,ESE,123,0.0,-999.0,79,-99.99,,,0.00,weatherlink.com 1.10,2013-02-02 03:57:00,
2013-02-02 06:12:00,51.8,46.0,29.79,ESE,123,2.0,-999.0,79,-99.99,,,0.00,weatherlink.com 1.10,2013-02-02 04:12:00,
2013-02-02 06:27:00,52.0,46.0,29.80,SE,124,3.0,-999.0,79,-99.99,,,0.00,weatherlink.com 1.10,2013-02-02 04:27:00,
2013-02-02 06:42:00,52.1,46.0,29.80,SE,127,1.0,-999.0,79,-99.99,,,0.00,weatherlink.com 1.10,2013-02-02 04:42:00,
2013-02-02 06:57:00,52.3,46.0,29.80,SE,133,7.0,-999.0,79,-99.99,,,0.00,weatherlink.com 1.10,2013-02-02 04:57:00,
2013-02-02 07:12:00,52.4,46.0,29.80,SE,133,2.0,-999.0,79,-99.99,,,0.00,weatherlink.com 1.10,2013-02-02 05:12:00,
2013-02-02 07:27:00,52.2,46.0,29.80,SE,133,2.0,-999.0,79,-99.99,,,0.00,weatherlink.com 1.10,2013-02-02 05:27:00,
2013-02-02 07:42:00,52.6,47.0,29.80,SE,133,4.0,-999.0,80,-99.99,,,0.00,weatherlink.com 1.10,2013-02-02 05:42:00,
2013-02-02 07:57:00,52.9,47.0,29.80,SE,134,5.0,-999.0,79,-99.99,,,0.00,weatherlink.com 1.10,2013-02-02 05:57:00,
2013-02-02 08:12:00,53.2,47.0,29.80,SSE,158,7.0,-999.0,78,-99.99,,,0.00,weatherlink.com 1.10,2013-02-02 06:12:00,
2013-02-02 08:27:00,53.7,46.0,29.81,SE,145,5.0,-999.0,76,-99.99,,,0.00,weatherlink.com 1.10,2013-02-02 06:27:00,
2013-02-02 08:42:00,54.7,47.0,29.80,South,182,2.0,-999.0,74,-99.99,,,0.00,weatherlink.com 1.10,2013-02-02 06:42:00,
2013-02-02 08:57:00,55.0,46.0,29.80,SE,137,4.0,-999.0,72,-99.99,,,0.00,weatherlink.com 1.10,2013-02-02 06:57:00,
2013-02-02 09:12:00,55.5,46.0,29.81,West,274,8.0,-999.0,71,-99.99,,,0.00,weatherlink.com 1.10,2013-02-02 07:12:00,
2013-02-02 09:27:00,55.6,46.0,29.80,SW,221,0.0,-999.0,71,-99.99,,,0.00,weatherlink.com 1.10,2013-02-02 07:27:00,
2013-02-02 09:42:00,55.6,46.0,29.80,SE,144,6.0,-999.0,71,-99.99,,,0.00,weatherlink.com 1.10,2013-02-02 07:42:00,
2013-02-02 09:57:00,55.5,47.0,29.80,SSE,159,7.0,-999.0,74,-99.99,,,0.00,weatherlink.com 1.10,2013-02-02 07:57:00,
2013-02-02 10:12:00,56.3,46.0,29.80,South,169,5.0,-999.0,69,-99.99,,,0.00,weatherlink.com 1.10,2013-02-02 08:12:00,
2013-02-02 10:27:00,56.8,47.0,29.80,SE,144,5.0,-999.0,70,-99.99,,,0.00,weatherlink.com 1.10,2013-02-02 08:27:00,
2013-02-02 10:43:00,57.0,47.0,29.80,South,175,6.0,-999.0,70,-99.99,,,0.00,weatherlink.com 1.10,2013-02-02 08:43:00,
2013-02-02 10:57:00,57.3,48.0,29.80,SE,142,6.0,-999.0,70,-99.99,,,0.00,weatherlink.com 1.10,2013-02-02 08:57:00,
2013-02-02 11:12:00,57.7,48.0,29.80,SSE,157,5.0,-999.0,69,-99.99,,,0.00,weatherlink.com 1.10,2013-02-02 09:12:00,
2013-02-02 11:27:00,57.8,49.0,29.80,South,189,8.0,-999.0,72,-99.99,,,0.00,weatherlink.com 1.10,2013-02-02 09:27:00,
2013-02-02 11:42:00,58.1,49.0,29.80,SSE,164,10.0,-999.0,73,-99.99,,,0.00,weatherlink.com 1.10,2013-02-02 09:42:00,
2013-02-02 11:57:00,58.3,49.0,29.79,South,169,10.0,-999.0,72,-99.99,,,0.00,weatherlink.com 1.10,2013-02-02 09:57:00,
2013-02-02 12:13:00,59.2,47.0,29.78,SSE,155,6.0,-999.0,64,-99.99,,,0.00,weatherlink.com 1.10,2013-02-02 10:13:00,
2013-02-02 12:27:00,59.6,46.0,29.78,SSW,199,11.0,-999.0,61,-99.99,,,0.00,weatherlink.com 1.10,2013-02-02 10:27:00,
2013-02-02 12:42:00,59.3,46.0,29.78,SSE,161,4.0,-999.0,62,-99.99,,,0.00,weatherlink.com 1.10,2013-02-02 10:42:00,
2013-02-02 12:57:00,59.3,48.0,29.78,SE,128,6.0,-999.0,66,-99.99,,,0.00,weatherlink.com 1.10,2013-02-02 10:57:00,
2013-02-02 13:13:00,59.3,48.0,29.78,SSE,157,15.0,-999.0,66,-99.99,,,0.00,weatherlink.com 1.10,2013-02-02 11:13:00,
2013-02-02 13:27:00,59.6,47.0,29.78,SSE,156,8.0,-999.0,64,-99.99,,,0.00,weatherlink.com 1.10,2013-02-02 11:27:00,
2013-02-02 13:43:00,59.8,47.0,29.78,South,181,8.0,-999.0,63,-99.99,,,0.00,weatherlink.com 1.10,2013-02-02 11:43:00,
2013-02-02 13:58:00,60.7,47.0,29.77,SSE,148,6.0,-999.0,60,-99.99,,,0.00,weatherlink.com 1.10,2013-02-02 11:58:00,
2013-02-02 14:13:00,60.9,46.0,29.77,SSE,149,5.0,-999.0,59,-99.99,,,0.00,weatherlink.com 1.10,2013-02-02 12:13:00,
2013-02-02 14:28:00,61.1,48.0,29.76,SSW,195,8.0,-999.0,62,-99.99,,,0.00,weatherlink.com 1.10,2013-02-02 12:28:00,
2013-02-02 14:43:00,61.3,48.0,29.75,SE,144,7.0,-999.0,62,-99.99,,,0.00,weatherlink.com 1.10,2013-02-02 12:43:00,
2013-02-02 14:58:00,61.5,48.0,29.76,South,172,6.0,-999.0,62,-99.99,,,0.00,weatherlink.com 1.10,2013-02-02 12:58:00,
2013-02-02 15:13:00,61.6,48.0,29.76,SE,140,10.0,-999.0,62,-99.99,,,0.00,weatherlink.com 1.10,2013-02-02 13:13:00,
2013-02-02 15:28:00,61.7,48.0,29.76,SE,146,5.0,-999.0,61,-99.99,,,0.00,weatherlink.com 1.10,2013-02-02 13:28:00,
2013-02-02 15:43:00,61.8,48.0,29.75,SE,129,6.0,-999.0,61,-99.99,,,0.00,weatherlink.com 1.10,2013-02-02 13:43:00,
2013-02-02 15:58:00,61.9,48.0,29.75,SE,146,15.0,-999.0,60,-99.99,,,0.00,weatherlink.com 1.10,2013-02-02 13:58:00,
2013-02-02 16:13:00,61.9,49.0,29.75,SSE,166,9.0,-999.0,62,-99.99,,,0.00,weatherlink.com 1.10,2013-02-02 14:13:00,
2013-02-02 16:28:00,61.8,48.0,29.75,SSE,159,8.0,-999.0,62,-99.99,,,0.00,weatherlink.com 1.10,2013-02-02 14:28:00,
2013-02-02 16:43:00,61.6,48.0,29.74,South,181,9.0,-999.0,62,-99.99,,,0.00,weatherlink.com 1.10,2013-02-02 14:43:00,
2013-02-02 16:58:00,61.5,48.0,29.74,SE,141,8.0,-999.0,62,-99.99,,,0.00,weatherlink.com 1.10,2013-02-02 14:58:00,
2013-02-02 17:13:00,61.2,50.0,29.74,SSE,164,6.0,-999.0,67,-99.99,,,0.00,weatherlink.com 1.10,2013-02-02 15:13:00,
2013-02-02 17:28:00,60.4,51.0,29.73,SSE,152,12.0,-999.0,70,-99.99,,,0.00,weatherlink.com 1.10,2013-02-02 15:28:00,
2013-02-02 17:43:00,60.2,50.0,29.73,SE,130,10.0,-999.0,70,-99.99,,,0.00,weatherlink.com 1.10,2013-02-02 15:43:00,
2013-02-02 17:58:00,60.2,50.0,29.73,SE,146,13.0,-999.0,68,-99.99,,,0.00,weatherlink.com 1.10,2013-02-02 15:58:00,
2013-02-02 18:13:00,60.0,50.0,29.73,SSE,161,10.0,-999.0,69,-99.99,,,0.00,weatherlink.com 1.10,2013-02-02 16:13:00,
2013-02-02 18:28:00,59.8,51.0,29.74,SSE,155,7.0,-999.0,72,-99.99,,,0.00,weatherlink.com 1.10,2013-02-02 16:28:00,
2013-02-02 18:43:00,59.4,52.0,29.74,SE,138,20.0,-999.0,76,-99.99,,,0.00,weatherlink.com 1.10,2013-02-02 16:43:00,
2013-02-02 18:58:00,59.4,52.0,29.75,SE,136,14.0,-999.0,76,-99.99,,,0.00,weatherlink.com 1.10,2013-02-02 16:58:00,
2013-02-02 19:13:00,59.3,52.0,29.75,SE,146,12.0,-999.0,78,-99.99,,,0.00,weatherlink.com 1.10,2013-02-02 17:13:00,
2013-02-02 19:28:00,58.9,53.0,29.75,SSE,161,6.0,-999.0,80,-99.99,,,0.00,weatherlink.com 1.10,2013-02-02 17:28:00,
2013-02-02 19:43:00,58.9,52.0,29.75,SSE,155,7.0,-999.0,79,-99.99,,,0.00,weatherlink.com 1.10,2013-02-02 17:43:00,
2013-02-02 19:58:00,59.1,52.0,29.75,SSE,161,6.0,-999.0,76,-99.99,,,0.00,weatherlink.com 1.10,2013-02-02 17:58:00,
2013-02-02 20:13:00,58.8,52.0,29.75,SE,137,14.0,-999.0,78,-99.99,,,0.00,weatherlink.com 1.10,2013-02-02 18:13:00,
2013-02-02 20:28:00,59.6,51.0,29.75,SSE,155,8.0,-999.0,72,-99.99,,,0.00,weatherlink.com 1.10,2013-02-02 18:28:00,
2013-02-02 20:43:00,59.3,51.0,29.76,SE,141,20.0,-999.0,74,-99.99,,,0.00,weatherlink.com 1.10,2013-02-02 18:43:00,
2013-02-02 20:58:00,58.6,51.0,29.76,SSW,193,6.0,-999.0,76,-99.99,,,0.00,weatherlink.com 1.10,2013-02-02 18:58:00,
2013-02-02 21:13:00,58.4,51.0,29.76,SSW,197,11.0,-999.0,77,-99.99,,,0.00,weatherlink.com 1.10,2013-02-02 19:13:00,
2013-02-02 21:28:00,58.3,52.0,29.77,South,191,12.0,-999.0,79,-99.99,,,0.00,weatherlink.com 1.10,2013-02-02 19:28:00,
2013-02-02 21:43:00,58.0,52.0,29.77,SE,139,14.0,-999.0,80,-99.99,,,0.00,weatherlink.com 1.10,2013-02-02 19:43:00,
2013-02-02 21:58:00,57.6,52.0,29.77,SSE,159,12.0,-999.0,81,-99.99,,,0.00,weatherlink.com 1.10,2013-02-02 19:58:00,
2013-02-02 22:13:00,57.7,51.0,29.77,SE,127,12.0,-999.0,79,-99.99,,,0.00,weatherlink.com 1.10,2013-02-02 20:13:00,
2013-02-02 22:28:00,57.8,52.0,29.77,SE,126,3.0,-999.0,80,-99.99,,,0.00,weatherlink.com 1.10,2013-02-02 20:28:00,
2013-02-02 22:43:00,57.6,52.0,29.77,South,169,10.0,-999.0,82,-99.99,,,0.00,weatherlink.com 1.10,2013-02-02 20:43:00,
2013-02-02 22:58:00,58.0,52.0,29.77,SSW,198,13.0,-999.0,79,-99.99,,,0.00,weatherlink.com 1.10,2013-02-02 20:58:00,
2013-02-02 23:13:00,57.8,52.0,29.77,SSE,156,16.0,-999.0,81,-99.99,,,0.00,weatherlink.com 1.10,2013-02-02 21:13:00,
2013-02-02 23:28:00,57.7,53.0,29.77,SSE,159,13.0,-999.0,84,-99.99,,,0.00,weatherlink.com 1.10,2013-02-02 21:28:00,
2013-02-02 23:43:00,57.5,53.0,29.77,SE,143,9.0,-999.0,86,-99.99,,,0.00,weatherlink.com 1.10,2013-02-02 21:43:00,
2013-02-02 23:58:00,57.4,53.0,29.77,SSE,167,16.0,-999.0,86,-99.99,,,0.00,weatherlink.com 1.10,2013-02-02 21:58:00,